Time;durP1;ratioP1;P1;durP2;ratioP2;P2;SDS_P1;SDS_P2;PMS_P1;PMS_P2;Temp;Humidity;BMP_temperature;BMP_pressure;BME280_temperature;BME280_humidity;BME280_pressure;Samples;Min_cycle;Max_cycle;Signal;HPM_P1;HPM_P2
2024/02/25 00:01:51;;;;;;;2.63;2.50;;;8.30;99.90;;;;;;4934393;29;20205;-60
2024/02/25 00:04:16;;;;;;;2.70;2.50;;;8.40;99.90;;;;;;4934926;29;20174;-60
2024/02/25 00:06:45;;;;;;;2.73;2.53;;;8.40;99.90;;;;;;4934358;29;20193;-61
2024/02/25 00:09:12;;;;;;;3.40;2.40;;;8.40;99.90;;;;;;4949582;29;20477;-60
2024/02/25 00:11:40;;;;;;;2.80;2.50;;;8.40;99.90;;;;;;4935120;29;20461;-60
2024/02/25 00:14:07;;;;;;;2.47;2.30;;;8.50;99.90;;;;;;4934823;29;20407;-60
2024/02/25 00:16:34;;;;;;;2.97;2.77;;;8.50;99.90;;;;;;4935768;29;20414;-60
2024/02/25 00:19:01;;;;;;;2.33;2.23;;;8.50;99.90;;;;;;4937667;29;20805;-60
2024/02/25 00:21:27;;;;;;;3.10;2.57;;;8.50;99.90;;;;;;4938237;29;20419;-60
2024/02/25 00:23:53;;;;;;;3.07;2.17;;;8.50;99.90;;;;;;4937025;29;20431;-60
2024/02/25 00:26:23;;;;;;;2.00;1.90;;;8.40;99.90;;;;;;4938102;29;20413;-60
2024/02/25 00:28:49;;;;;;;2.20;2.10;;;8.40;99.90;;;;;;4937637;29;20232;-60
2024/02/25 00:31:15;;;;;;;2.07;2.00;;;8.30;99.90;;;;;;4938494;29;20430;-60
2024/02/25 00:33:41;;;;;;;2.50;2.40;;;8.30;99.90;;;;;;4938293;29;20178;-60
2024/02/25 00:36:07;;;;;;;2.67;2.47;;;8.30;99.90;;;;;;4937946;29;20521;-61
2024/02/25 00:38:33;;;;;;;2.27;2.17;;;8.40;99.90;;;;;;4937559;29;20856;-60
2024/02/25 00:40:59;;;;;;;1.90;1.80;;;8.40;99.90;;;;;;4920180;29;20426;-61
2024/02/25 00:43:25;;;;;;;2.10;2.00;;;8.40;99.90;;;;;;4952859;29;20434;-60
2024/02/25 00:45:51;;;;;;;2.20;2.10;;;8.30;99.90;;;;;;4937251;29;20171;-61
2024/02/25 00:48:16;;;;;;;2.10;2.00;;;8.30;99.90;;;;;;4937784;29;20182;-60
2024/02/25 00:50:42;;;;;;;2.00;1.90;;;8.40;99.90;;;;;;4937372;29;20177;-63
2024/02/25 00:53:08;;;;;;;2.43;2.20;;;8.50;99.90;;;;;;4937727;29;20169;-61
2024/02/25 00:55:34;;;;;;;2.40;2.30;;;8.30;99.90;;;;;;4937647;29;20406;-60
2024/02/25 00:57:59;;;;;;;2.87;2.60;;;8.50;99.90;;;;;;4936703;29;20174;-61
2024/02/25 01:00:25;;;;;;;1.90;1.90;;;8.60;99.90;;;;;;4937479;29;20672;-61
2024/02/25 01:02:51;;;;;;;2.23;2.13;;;8.60;99.90;;;;;;4937180;29;20370;-61
2024/02/25 01:05:17;;;;;;;2.03;2.03;;;8.40;99.90;;;;;;4937161;29;20414;-61
2024/02/25 01:07:43;;;;;;;2.53;2.30;;;8.40;99.90;;;;;;4952110;29;20190;-61
2024/02/25 01:10:09;;;;;;;2.20;2.07;;;8.40;99.90;;;;;;4937346;29;20186;-60
2024/02/25 01:12:35;;;;;;;2.67;2.47;;;8.20;99.90;;;;;;4937368;29;20980;-60
2024/02/25 01:15:01;;;;;;;2.17;2.07;;;8.20;99.90;;;;;;4936643;29;20441;-61
2024/02/25 01:17:27;;;;;;;2.20;2.10;;;8.10;99.90;;;;;;4937234;29;20196;-60
2024/02/25 01:19:52;;;;;;;2.43;2.33;;;8.30;99.90;;;;;;4936474;29;20501;-61
2024/02/25 01:22:18;;;;;;;2.30;2.20;;;8.40;99.90;;;;;;4937082;29;20193;-61
2024/02/25 01:24:44;;;;;;;2.43;2.33;;;8.40;99.90;;;;;;4919879;29;20638;-63
2024/02/25 01:27:10;;;;;;;2.23;2.13;;;8.20;99.90;;;;;;4936565;29;20571;-60
2024/02/25 01:29:36;;;;;;;2.20;2.10;;;8.30;99.90;;;;;;4950976;29;20426;-60
2024/02/25 01:32:02;;;;;;;2.23;2.13;;;8.40;99.90;;;;;;4936341;29;20196;-61
2024/02/25 01:34:28;;;;;;;2.40;2.30;;;8.40;99.90;;;;;;4936862;29;20185;-60
2024/02/25 01:36:54;;;;;;;2.33;2.23;;;8.30;99.90;;;;;;4936299;29;20418;-61
2024/02/25 01:39:22;;;;;;;2.10;2.00;;;8.30;99.90;;;;;;4936395;29;20462;-61
2024/02/25 01:41:50;;;;;;;1.83;1.83;;;8.30;99.90;;;;;;4950765;29;20429;-61
2024/02/25 01:44:16;;;;;;;2.27;2.17;;;8.20;99.90;;;;;;4936749;29;20445;-60
2024/02/25 01:46:45;;;;;;;2.10;2.00;;;8.20;99.90;;;;;;4936637;29;20440;-61
2024/02/25 01:49:13;;;;;;;1.90;1.90;;;8.30;99.90;;;;;;4936567;29;20417;-60
2024/02/25 01:51:40;;;;;;;2.10;2.00;;;8.20;99.90;;;;;;4936512;29;20430;-61
2024/02/25 01:54:06;;;;;;;2.00;1.90;;;8.20;99.90;;;;;;4951032;29;20735;-61
2024/02/25 01:56:34;;;;;;;1.90;1.90;;;8.20;99.90;;;;;;4936563;29;20465;-61
2024/02/25 01:59:02;;;;;;;4.50;2.30;;;8.30;99.90;;;;;;4934423;29;20518;-61
2024/02/25 02:01:29;;;;;;;2.07;1.97;;;8.20;99.90;;;;;;4936372;29;20419;-61
2024/02/25 02:03:55;;;;;;;2.60;2.50;;;8.10;99.90;;;;;;4935532;29;20401;-60
2024/02/25 02:06:20;;;;;;;2.10;2.00;;;8.20;99.90;;;;;;4936444;29;20909;-60
2024/02/25 02:08:46;;;;;;;2.77;2.13;;;8.10;99.90;;;;;;4936253;29;20590;-61
2024/02/25 02:11:20;;;;;;;2.30;2.20;;;8.20;99.90;;;;;;4935969;29;20647;-61
2024/02/25 02:13:46;;;;;;;2.37;2.27;;;8.20;99.90;;;;;;4936244;29;20398;-60
2024/02/25 02:16:13;;;;;;;2.27;2.13;;;8.20;99.90;;;;;;4935862;29;20453;-61
2024/02/25 02:18:41;;;;;;;2.20;2.00;;;8.20;99.90;;;;;;4935992;29;20457;-61
2024/02/25 02:21:17;;;;;;;2.27;2.17;;;8.30;99.90;;;;;;4935449;29;20408;-61
2024/02/25 02:23:44;;;;;;;2.30;2.20;;;8.50;99.90;;;;;;4936165;29;20435;-61
2024/02/25 02:26:10;;;;;;;2.30;2.20;;;8.40;99.90;;;;;;4935426;29;20414;-61
2024/02/25 02:28:35;;;;;;;2.50;2.40;;;8.30;99.90;;;;;;4935706;29;20473;-61
2024/02/25 02:31:02;;;;;;;2.23;2.13;;;8.30;99.90;;;;;;4935109;29;20419;-61
2024/02/25 02:33:27;;;;;;;2.23;2.13;;;8.10;99.90;;;;;;4935876;29;20182;-60
2024/02/25 02:35:53;;;;;;;2.37;2.27;;;8.00;99.90;;;;;;4935284;29;20425;-61
2024/02/25 02:38:20;;;;;;;2.30;2.20;;;7.90;99.90;;;;;;4935417;29;20630;-61
2024/02/25 02:40:45;;;;;;;2.23;2.13;;;8.00;99.90;;;;;;4935626;29;20205;-61
2024/02/25 02:43:11;;;;;;;2.60;2.40;;;8.10;99.90;;;;;;4949802;29;20941;-60
2024/02/25 02:45:39;;;;;;;2.50;2.40;;;8.00;99.90;;;;;;4935962;29;20214;-60
2024/02/25 02:48:08;;;;;;;3.00;2.80;;;8.00;99.90;;;;;;4935086;29;20170;-60
2024/02/25 02:50:34;;;;;;;2.53;2.43;;;7.90;99.90;;;;;;4935555;29;20410;-60
2024/02/25 02:53:00;;;;;;;2.97;2.77;;;8.00;99.90;;;;;;4934712;29;20766;-61
2024/02/25 02:55:26;;;;;;;2.37;2.27;;;7.80;99.90;;;;;;4935595;29;20417;-61
2024/02/25 02:57:52;;;;;;;2.60;2.50;;;7.80;99.90;;;;;;4935127;29;20402;-61
2024/02/25 03:00:18;;;;;;;2.80;2.60;;;7.70;99.90;;;;;;4935395;29;20275;-60
2024/02/25 03:02:43;;;;;;;2.73;2.60;;;7.60;99.90;;;;;;4935494;29;20205;-60
2024/02/25 03:05:09;;;;;;;2.40;2.30;;;7.60;99.90;;;;;;4934850;29;20476;-60
2024/02/25 03:07:35;;;;;;;2.60;2.50;;;7.70;99.90;;;;;;4935426;29;20177;-60
2024/02/25 03:10:00;;;;;;;2.70;2.50;;;7.60;99.90;;;;;;4934822;29;20178;-61
2024/02/25 03:12:26;;;;;;;3.57;2.80;;;7.70;99.90;;;;;;4935478;29;20192;-60
2024/02/25 03:14:52;;;;;;;2.40;2.30;;;7.70;99.90;;;;;;4934802;29;20177;-60
2024/02/25 03:17:20;;;;;;;2.97;2.77;;;7.90;99.90;;;;;;4935346;29;20174;-61
2024/02/25 03:19:45;;;;;;;2.47;2.37;;;7.90;99.90;;;;;;4934994;29;20714;-60
2024/02/25 03:22:11;;;;;;;2.50;2.40;;;8.00;99.90;;;;;;4934701;29;20528;-61
2024/02/25 03:24:37;;;;;;;2.67;2.57;;;8.00;99.90;;;;;;4935339;29;20182;-61
2024/02/25 03:27:03;;;;;;;2.20;2.20;;;8.00;99.90;;;;;;4934616;29;20929;-61
2024/02/25 03:29:29;;;;;;;3.00;2.63;;;7.90;99.90;;;;;;4918529;29;20610;-61
2024/02/25 03:31:55;;;;;;;2.53;2.43;;;7.90;99.90;;;;;;4934706;29;20410;-61
2024/02/25 03:34:21;;;;;;;2.87;2.67;;;7.90;99.90;;;;;;4935140;29;20237;-61
2024/02/25 03:36:46;;;;;;;2.70;2.60;;;7.90;99.90;;;;;;4935239;29;20174;-61
2024/02/25 03:39:12;;;;;;;2.40;2.23;;;7.80;99.90;;;;;;4934541;29;20245;-61
2024/02/25 03:41:38;;;;;;;2.70;2.60;;;7.80;99.90;;;;;;4935211;29;20174;-61
2024/02/25 03:44:04;;;;;;;2.57;2.47;;;7.80;99.90;;;;;;4934818;29;20649;-60
2024/02/25 03:46:29;;;;;;;2.97;2.37;;;7.70;99.90;;;;;;4935171;29;20174;-61
2024/02/25 03:48:55;;;;;;;2.80;2.60;;;7.90;99.90;;;;;;4934516;29;20209;-61
2024/02/25 03:51:21;;;;;;;2.90;2.60;;;7.60;99.90;;;;;;4935564;29;20219;-61
2024/02/25 03:53:46;;;;;;;2.60;2.50;;;7.70;99.90;;;;;;4938737;29;20220;-60
2024/02/25 03:56:12;;;;;;;2.70;2.60;;;7.80;99.90;;;;;;4937877;29;20253;-61
2024/02/25 03:58:38;;;;;;;2.47;2.37;;;7.70;99.90;;;;;;4938226;29;20214;-61
2024/02/25 04:01:05;;;;;;;2.57;2.37;;;7.80;99.90;;;;;;4938106;29;20734;-60
2024/02/25 04:03:30;;;;;;;2.50;2.20;;;7.90;99.90;;;;;;4938533;29;20178;-61
2024/02/25 04:05:56;;;;;;;2.63;2.50;;;7.90;99.90;;;;;;4937919;29;20612;-61
2024/02/25 04:08:23;;;;;;;2.50;2.40;;;7.70;99.90;;;;;;4938496;29;20182;-61
2024/02/25 04:10:49;;;;;;;3.10;3.00;;;7.60;99.90;;;;;;4938446;29;20181;-61
2024/02/25 04:13:15;;;;;;;2.90;2.70;;;7.50;99.90;;;;;;4937829;29;20445;-61
2024/02/25 04:15:41;;;;;;;2.73;2.53;;;7.70;99.90;;;;;;4938381;29;20185;-61
2024/02/25 04:18:07;;;;;;;2.80;2.70;;;7.80;99.90;;;;;;4937762;29;20181;-61
2024/02/25 04:20:33;;;;;;;2.63;2.53;;;7.70;99.90;;;;;;4938233;29;20216;-60
2024/02/25 04:22:59;;;;;;;2.80;2.60;;;7.60;99.90;;;;;;4937652;29;20417;-61
2024/02/25 04:25:25;;;;;;;2.80;2.70;;;7.60;99.90;;;;;;4938418;29;20421;-60
2024/02/25 04:27:50;;;;;;;2.73;2.53;;;7.50;99.90;;;;;;4937751;29;20457;-60
2024/02/25 04:30:16;;;;;;;2.80;2.70;;;7.40;99.90;;;;;;4937468;29;20194;-60
2024/02/25 04:32:46;;;;;;;2.60;2.50;;;7.40;99.90;;;;;;4938076;29;20527;-61
2024/02/25 04:35:12;;;;;;;2.70;2.50;;;7.50;99.90;;;;;;4937447;29;20588;-61
2024/02/25 04:37:38;;;;;;;2.90;2.80;;;7.60;99.90;;;;;;4937680;29;20905;-61
2024/02/25 04:40:05;;;;;;;2.50;2.40;;;7.70;99.90;;;;;;4937235;29;20453;-61
2024/02/25 04:42:30;;;;;;;3.03;2.83;;;7.70;99.90;;;;;;4938031;29;20277;-60
2024/02/25 04:44:56;;;;;;;2.90;2.30;;;7.70;99.90;;;;;;4936932;29;20940;-62
2024/02/25 04:47:22;;;;;;;2.43;2.33;;;7.70;99.90;;;;;;4937804;29;20180;-60
2024/02/25 04:49:48;;;;;;;2.20;2.10;;;7.70;99.90;;;;;;4937782;29;20432;-61
2024/02/25 04:52:14;;;;;;;2.73;2.50;;;7.80;99.90;;;;;;4937067;29;20201;-61
2024/02/25 04:54:42;;;;;;;2.00;1.90;;;7.80;99.90;;;;;;4920674;29;20178;-60
2024/02/25 04:57:08;;;;;;;1.80;1.80;;;7.50;99.90;;;;;;4936933;29;20406;-60
2024/02/25 04:59:34;;;;;;;2.00;1.90;;;7.50;99.90;;;;;;4937582;29;20462;-61
2024/02/25 05:01:59;;;;;;;2.50;2.40;;;7.60;99.90;;;;;;4936532;29;20504;-63
2024/02/25 05:04:25;;;;;;;2.33;2.23;;;7.60;99.90;;;;;;4936917;29;20571;-60
2024/02/25 05:06:51;;;;;;;2.00;2.00;;;7.60;99.90;;;;;;4937311;29;20417;-60
2024/02/25 05:09:17;;;;;;;2.10;2.10;;;7.70;99.90;;;;;;4912018;29;20775;-61
2024/02/25 05:11:42;;;;;;;2.77;2.10;;;7.70;99.90;;;;;;4937316;29;20875;-60
2024/02/25 05:14:08;;;;;;;2.40;2.30;;;7.80;99.90;;;;;;4936760;29;20562;-60
2024/02/25 05:16:34;;;;;;;2.30;2.10;;;7.80;99.90;;;;;;4937338;29;20189;-60
2024/02/25 05:19:00;;;;;;;2.40;2.30;;;7.80;99.90;;;;;;4936542;29;20269;-61
2024/02/25 05:21:25;;;;;;;2.30;2.20;;;7.70;99.90;;;;;;4937190;29;20181;-60
2024/02/25 05:23:51;;;;;;;2.60;2.40;;;7.70;99.90;;;;;;4937417;29;20185;-60
2024/02/25 05:26:17;;;;;;;2.80;2.70;;;7.80;99.90;;;;;;4936500;29;20177;-61
2024/02/25 05:28:43;;;;;;;3.70;2.10;;;7.80;99.90;;;;;;4936644;29;20252;-60
2024/02/25 05:31:13;;;;;;;2.03;2.03;;;7.60;99.90;;;;;;4936467;29;20646;-61
2024/02/25 05:33:39;;;;;;;2.40;2.30;;;7.80;99.90;;;;;;4935862;29;20507;-60
2024/02/25 05:36:05;;;;;;;2.63;2.43;;;7.50;99.90;;;;;;4951099;29;20421;-61
2024/02/25 05:38:31;;;;;;;2.33;2.23;;;7.50;99.90;;;;;;4919705;29;20185;-61
2024/02/25 05:40:57;;;;;;;2.40;2.30;;;7.70;99.90;;;;;;4936857;29;20410;-60
2024/02/25 05:43:23;;;;;;;2.57;2.37;;;7.60;99.90;;;;;;4935996;29;20253;-61
2024/02/25 05:45:48;;;;;;;2.30;2.20;;;7.40;99.90;;;;;;4936426;29;20912;-61
2024/02/25 05:48:14;;;;;;;2.20;2.10;;;7.60;99.90;;;;;;4936023;29;20414;-61
2024/02/25 05:50:40;;;;;;;2.37;2.30;;;7.60;99.90;;;;;;4936572;29;20531;-61
2024/02/25 05:53:06;;;;;;;2.37;2.27;;;7.70;99.90;;;;;;4935924;29;20222;-61
2024/02/25 05:55:31;;;;;;;2.37;2.27;;;7.70;99.90;;;;;;4936566;29;20504;-61
2024/02/25 05:57:57;;;;;;;2.37;2.27;;;7.70;99.90;;;;;;4936616;29;20696;-61
2024/02/25 06:00:23;;;;;;;2.30;2.20;;;7.80;99.90;;;;;;4918728;29;20214;-61
2024/02/25 06:02:49;;;;;;;2.30;2.20;;;7.80;99.90;;;;;;4936394;29;20321;-61
2024/02/25 06:05:15;;;;;;;2.40;2.30;;;7.90;99.90;;;;;;4935764;29;20169;-61
2024/02/25 06:07:41;;;;;;;2.13;2.03;;;8.00;99.90;;;;;;4936335;29;20505;-61
2024/02/25 06:10:07;;;;;;;1.93;1.83;;;8.00;99.90;;;;;;4935698;29;20425;-61
2024/02/25 06:12:35;;;;;;;2.40;2.30;;;8.10;99.90;;;;;;4936678;29;20409;-60
2024/02/25 06:15:07;;;;;;;2.37;2.27;;;8.20;99.90;;;;;;4935552;29;20401;-63
2024/02/25 06:17:33;;;;;;;2.50;2.40;;;8.20;99.90;;;;;;4936283;29;20465;-61
2024/02/25 06:19:58;;;;;;;3.90;2.60;;;8.20;99.90;;;;;;4936089;29;20456;-61
2024/02/25 06:22:24;;;;;;;3.00;2.80;;;8.00;99.90;;;;;;4935542;29;20410;-61
2024/02/25 06:24:50;;;;;;;3.57;3.37;;;7.80;99.90;;;;;;4936072;29;20255;-61
2024/02/25 06:27:16;;;;;;;3.00;2.80;;;7.80;99.90;;;;;;4935482;29;20221;-61
2024/02/25 06:29:41;;;;;;;3.63;2.50;;;8.00;99.90;;;;;;4935970;29;20212;-61
2024/02/25 06:32:07;;;;;;;2.70;2.60;;;7.90;99.90;;;;;;4935349;29;20182;-61
2024/02/25 06:34:33;;;;;;;3.90;3.70;;;7.80;99.90;;;;;;4935839;29;20232;-61
2024/02/25 06:36:58;;;;;;;3.20;3.00;;;7.80;99.90;;;;;;4935920;29;20178;-60
2024/02/25 06:39:24;;;;;;;3.10;3.00;;;7.90;99.90;;;;;;4935170;29;20237;-60
2024/02/25 06:41:51;;;;;;;4.10;3.67;;;7.70;99.90;;;;;;4935779;29;20197;-61
2024/02/25 06:44:17;;;;;;;3.47;3.33;;;7.70;99.90;;;;;;4934890;29;20661;-61
2024/02/25 06:46:43;;;;;;;4.00;3.70;;;7.60;99.90;;;;;;4935647;29;20406;-60
2024/02/25 06:49:08;;;;;;;3.90;3.60;;;7.70;99.90;;;;;;4935054;29;20169;-61
2024/02/25 06:51:34;;;;;;;4.20;3.90;;;7.80;99.90;;;;;;4950321;29;20545;-60
2024/02/25 06:54:00;;;;;;;3.63;3.40;;;7.70;99.90;;;;;;4935400;29;20186;-61
2024/02/25 06:56:26;;;;;;;4.73;3.10;;;7.80;99.90;;;;;;4935029;29;20181;-60
2024/02/25 06:58:51;;;;;;;3.20;3.10;;;7.90;99.90;;;;;;4935287;29;20209;-61
2024/02/25 07:01:19;;;;;;;2.70;2.60;;;7.90;99.90;;;;;;4934721;29;20177;-61
2024/02/25 07:03:45;;;;;;;3.10;2.90;;;8.00;99.90;;;;;;4935557;29;20173;-61
2024/02/25 07:06:14;;;;;;;2.80;2.70;;;7.90;99.90;;;;;;4934923;29;20890;-61
2024/02/25 07:08:40;;;;;;;3.40;3.20;;;8.00;99.90;;;;;;4935417;29;20409;-61
2024/02/25 07:11:18;;;;;;;2.60;2.50;;;7.90;99.90;;;;;;4934899;29;20406;-61
2024/02/25 07:13:44;;;;;;;5.57;4.20;;;7.80;99.90;;;;;;4935055;29;20917;-60
2024/02/25 07:16:10;;;;;;;4.60;3.40;;;8.00;99.90;;;;;;4934715;29;20451;-61
2024/02/25 07:18:36;;;;;;;3.07;2.97;;;8.00;99.90;;;;;;4934974;29;20451;-60
2024/02/25 07:21:02;;;;;;;3.03;2.90;;;7.90;99.90;;;;;;4935669;29;20835;-61
2024/02/25 07:23:28;;;;;;;3.00;2.90;;;7.90;99.90;;;;;;4934765;29;20181;-60
2024/02/25 07:25:54;;;;;;;3.87;3.60;;;8.00;99.90;;;;;;4935462;29;20925;-61
2024/02/25 07:28:20;;;;;;;3.77;3.57;;;7.90;99.90;;;;;;4938471;29;20221;-61
2024/02/25 07:30:45;;;;;;;3.27;3.07;;;7.90;99.90;;;;;;4939313;29;20189;-61
2024/02/25 07:33:11;;;;;;;3.10;3.00;;;8.00;99.90;;;;;;4938240;29;20188;-61
2024/02/25 07:35:37;;;;;;;3.27;3.17;;;7.70;99.90;;;;;;4939399;29;20742;-61
2024/02/25 07:38:02;;;;;;;3.10;3.00;;;7.80;99.90;;;;;;4939069;29;20173;-60
2024/02/25 07:40:28;;;;;;;3.70;3.40;;;8.00;99.90;;;;;;4938400;29;20538;-61
2024/02/25 07:42:54;;;;;;;2.83;2.73;;;7.90;99.90;;;;;;4939083;29;20630;-61
2024/02/25 07:45:19;;;;;;;3.00;2.80;;;8.00;99.90;;;;;;4953066;29;20762;-60
2024/02/25 07:47:45;;;;;;;2.80;2.70;;;7.90;99.90;;;;;;4938630;29;20174;-61
2024/02/25 07:50:11;;;;;;;3.50;3.30;;;7.80;99.90;;;;;;4938294;29;20187;-61
2024/02/25 07:52:37;;;;;;;2.83;2.73;;;7.60;99.90;;;;;;4938490;29;20174;-61
2024/02/25 07:55:04;;;;;;;2.90;2.80;;;7.80;99.90;;;;;;4938726;29;20735;-61
2024/02/25 07:57:33;;;;;;;2.50;2.40;;;7.90;99.90;;;;;;4937800;29;20526;-61
2024/02/25 07:59:59;;;;;;;2.87;2.70;;;8.00;99.90;;;;;;4938661;29;20811;-61
2024/02/25 08:02:26;;;;;;;2.80;2.70;;;8.10;99.90;;;;;;4938090;29;20503;-61
2024/02/25 08:04:51;;;;;;;2.50;2.40;;;8.30;99.90;;;;;;4938571;29;20401;-61
2024/02/25 08:07:17;;;;;;;2.40;2.30;;;8.40;99.90;;;;;;4938189;29;20896;-60
2024/02/25 08:09:43;;;;;;;2.50;2.40;;;8.60;99.90;;;;;;4938482;29;20175;-62
2024/02/25 08:12:08;;;;;;;2.77;2.67;;;8.70;99.90;;;;;;4937701;29;20181;-64
2024/02/25 08:14:34;;;;;;;2.60;2.50;;;8.70;99.90;;;;;;4938379;29;20624;-62
2024/02/25 08:17:00;;;;;;;3.07;2.87;;;8.80;99.90;;;;;;4938014;29;20538;-61
2024/02/25 08:19:26;;;;;;;2.80;2.70;;;8.80;99.90;;;;;;4937720;29;20264;-60
2024/02/25 08:21:51;;;;;;;2.90;2.80;;;8.90;99.90;;;;;;4938272;29;20221;-62
2024/02/25 08:24:20;;;;;;;3.87;3.67;;;9.00;99.90;;;;;;4937327;29;20185;-60
2024/02/25 08:26:46;;;;;;;3.20;3.10;;;9.10;99.90;;;;;;4938298;29;20265;-61
2024/02/25 08:29:11;;;;;;;3.20;3.00;;;8.80;99.90;;;;;;4937244;29;20469;-62
2024/02/25 08:31:37;;;;;;;3.30;2.97;;;8.90;99.90;;;;;;4952820;29;20721;-62
2024/02/25 08:34:03;;;;;;;3.13;3.03;;;8.90;99.90;;;;;;4938097;29;20203;-62
2024/02/25 08:36:29;;;;;;;3.40;3.30;;;8.90;99.90;;;;;;4937369;29;20575;-62
2024/02/25 08:38:55;;;;;;;3.00;2.90;;;8.90;99.90;;;;;;4937459;29;20466;-62
2024/02/25 08:41:21;;;;;;;1.90;1.80;;;8.90;99.90;;;;;;4937293;29;20180;-62
2024/02/25 08:43:47;;;;;;;2.00;1.90;;;8.90;99.90;;;;;;4937862;29;20648;-61
2024/02/25 08:46:12;;;;;;;1.70;1.60;;;8.90;99.90;;;;;;4920121;29;20446;-60
2024/02/25 08:48:38;;;;;;;2.93;1.67;;;9.00;99.90;;;;;;4937749;29;20636;-60
2024/02/25 08:51:04;;;;;;;1.90;1.80;;;8.90;99.90;;;;;;4937744;29;20206;-62
2024/02/25 08:53:30;;;;;;;2.07;1.90;;;8.70;99.90;;;;;;4951827;29;20262;-62
2024/02/25 08:55:55;;;;;;;2.00;1.90;;;8.80;99.90;;;;;;4937831;29;20858;-60
2024/02/25 08:58:21;;;;;;;2.03;1.93;;;8.90;99.90;;;;;;4936791;29;20175;-63
2024/02/25 09:00:47;;;;;;;2.10;2.00;;;8.90;99.90;;;;;;4937213;29;20219;-60
2024/02/25 09:03:13;;;;;;;2.33;2.23;;;9.00;99.90;;;;;;4936938;29;20226;-63
2024/02/25 09:05:40;;;;;;;1.70;1.60;;;9.00;99.90;;;;;;4937233;29;20183;-68
2024/02/25 09:08:06;;;;;;;2.00;1.93;;;8.90;99.90;;;;;;4937322;29;20425;-67
2024/02/25 09:10:34;;;;;;;1.53;1.53;;;9.00;99.90;;;;;;4936685;29;20571;-66
2024/02/25 09:13:02;;;;;;;1.90;1.80;;;9.00;99.90;;;;;;4937077;29;20889;-66
2024/02/25 09:15:29;;;;;;;2.17;2.07;;;9.40;99.90;;;;;;4936710;29;20418;-64
2024/02/25 09:17:56;;;;;;;3.37;1.97;;;9.80;99.90;;;;;;4920347;29;20414;-65
2024/02/25 09:20:24;;;;;;;1.70;1.60;;;10.10;99.90;;;;;;4935996;29;20810;-65
2024/02/25 09:22:50;;;;;;;1.73;1.43;;;10.50;99.90;;;;;;4936709;29;20419;-65
2024/02/25 09:25:16;;;;;;;1.60;1.50;;;10.80;99.90;;;;;;4936243;29;20419;-65
2024/02/25 09:27:42;;;;;;;1.60;1.60;;;11.10;99.90;;;;;;4936429;29;20337;-65
2024/02/25 09:30:08;;;;;;;2.20;1.87;;;11.20;99.90;;;;;;4936569;29;20518;-65
2024/02/25 09:32:35;;;;;;;1.37;1.30;;;11.50;99.90;;;;;;4935911;29;20623;-65
2024/02/25 09:35:01;;;;;;;1.30;1.30;;;11.60;99.90;;;;;;4936774;29;20419;-65
2024/02/25 09:37:27;;;;;;;1.10;1.10;;;11.80;99.90;;;;;;4935817;29;20447;-65
2024/02/25 09:39:52;;;;;;;1.90;1.80;;;12.00;99.90;;;;;;4935969;29;20533;-65
2024/02/25 09:42:21;;;;;;;1.60;1.60;;;11.90;99.90;;;;;;4942350;29;20178;-65
2024/02/25 09:44:52;;;;;;;2.10;2.00;;;11.80;99.90;;;;;;4933977;29;20208;-65
2024/02/25 09:47:20;;;;;;;2.20;2.10;;;11.80;99.90;;;;;;4936106;29;20405;-65
2024/02/25 09:49:48;;;;;;;1.87;1.77;;;11.60;99.90;;;;;;4935910;29;20428;-65
2024/02/25 09:52:16;;;;;;;2.10;2.00;;;11.30;99.90;;;;;;4936386;29;20425;-65
2024/02/25 09:54:43;;;;;;;1.90;1.80;;;11.50;99.90;;;;;;4936307;29;20858;-65
2024/02/25 09:57:09;;;;;;;1.87;1.77;;;11.80;99.90;;;;;;4936378;29;20504;-65
2024/02/25 09:59:35;;;;;;;2.23;2.13;;;12.00;99.90;;;;;;4935846;29;20531;-65
2024/02/25 10:02:02;;;;;;;2.90;2.80;;;12.10;99.90;;;;;;4936417;29;20929;-65
2024/02/25 10:04:28;;;;;;;322.47;191.63;;;12.20;99.30;;;;;;4935777;29;20178;-65
2024/02/25 10:06:58;;;;;;;381.97;246.60;;;12.10;99.90;;;;;;4936484;29;20407;-66
2024/02/25 10:09:33;;;;;;;4.03;3.83;;;12.30;99.90;;;;;;4935751;29;20423;-65
2024/02/25 10:12:01;;;;;;;2.80;2.60;;;12.20;97.50;;;;;;4936466;29;20395;-65
2024/02/25 10:14:27;;;;;;;6.50;5.70;;;12.10;98.50;;;;;;4950405;29;20915;-65
2024/02/25 10:17:03;;;;;;;2.40;2.30;;;12.10;99.30;;;;;;4936248;29;20413;-65
2024/02/25 10:19:29;;;;;;;3.43;3.20;;;12.10;98.00;;;;;;4909253;29;20219;-65
2024/02/25 10:22:05;;;;;;;3.73;3.43;;;12.30;98.40;;;;;;4917039;29;20679;-65
2024/02/25 10:24:31;;;;;;;2.70;2.60;;;12.40;98.80;;;;;;4916482;29;20444;-65
2024/02/25 10:27:08;;;;;;;2.30;2.20;;;12.60;98.00;;;;;;4916820;29;20972;-64
2024/02/25 10:29:52;;;;;;;3.90;3.60;;;12.80;97.20;;;;;;4916613;29;20590;-65
2024/02/25 10:32:29;;;;;;;2.30;2.20;;;12.90;95.20;;;;;;4916352;29;20400;-65
2024/02/25 10:35:00;;;;;;;2.10;2.00;;;12.80;97.80;;;;;;4916648;29;20413;-65
2024/02/25 10:37:28;;;;;;;3.20;2.90;;;12.90;96.60;;;;;;4916219;29;20409;-65
2024/02/25 10:39:58;;;;;;;2.40;2.30;;;12.90;96.90;;;;;;4916757;29;20512;-65
2024/02/25 10:42:28;;;;;;;2.60;2.50;;;13.00;95.60;;;;;;4916472;29;20421;-65
2024/02/25 10:44:58;;;;;;;2.53;2.43;;;13.20;95.90;;;;;;4917006;29;20453;-65
2024/02/25 10:47:28;;;;;;;2.40;2.30;;;13.30;95.40;;;;;;4916197;29;20441;-65
2024/02/25 10:49:55;;;;;;;2.50;2.40;;;13.40;94.00;;;;;;4916670;29;20422;-65
2024/02/25 10:52:22;;;;;;;2.50;2.40;;;13.10;95.30;;;;;;4916149;29;20420;-64
2024/02/25 10:54:50;;;;;;;2.80;2.70;;;13.40;94.40;;;;;;4916731;29;20418;-65
2024/02/25 10:57:22;;;;;;;3.40;3.30;;;13.70;94.70;;;;;;4899609;29;20422;-65
2024/02/25 10:59:48;;;;;;;3.20;3.10;;;13.90;93.30;;;;;;4916047;29;20525;-64
2024/02/25 11:02:26;;;;;;;2.50;2.50;;;13.70;92.20;;;;;;4916839;29;20874;-65
2024/02/25 11:04:52;;;;;;;2.80;2.50;;;13.50;92.80;;;;;;4918939;29;20876;-65
2024/02/25 11:07:18;;;;;;;3.20;3.10;;;13.60;92.90;;;;;;4918384;29;20426;-65
2024/02/25 11:09:44;;;;;;;3.07;2.97;;;13.70;92.50;;;;;;4935011;29;20901;-65
2024/02/25 11:12:22;;;;;;;2.63;2.53;;;13.90;92.30;;;;;;4935548;29;20398;-65
2024/02/25 11:15:03;;;;;;;3.00;2.90;;;13.80;92.80;;;;;;4935343;29;20417;-65
2024/02/25 11:17:30;;;;;;;2.30;2.30;;;13.70;92.10;;;;;;4934921;29;20514;-65
2024/02/25 11:19:58;;;;;;;2.83;2.73;;;13.80;92.00;;;;;;4938186;29;20832;-65
2024/02/25 11:22:44;;;;;;;2.90;2.70;;;13.90;93.10;;;;;;4916039;29;20426;-65
2024/02/25 11:25:32;;;;;;;3.00;2.90;;;14.00;92.40;;;;;;4899334;29;20958;-65
2024/02/25 11:28:20;;;;;;;2.83;2.73;;;14.10;92.40;;;;;;4915939;29;20545;-66
2024/02/25 11:30:50;;;;;;;3.20;3.10;;;14.00;90.70;;;;;;4915951;29;20420;-67
2024/02/25 11:33:39;;;;;;;3.73;3.53;;;14.00;92.30;;;;;;4915790;29;20474;-67
2024/02/25 11:36:16;;;;;;;3.27;3.10;;;13.80;92.80;;;;;;4914766;29;20820;-67
2024/02/25 11:38:45;;;;;;;3.17;3.03;;;13.60;92.10;;;;;;4915590;29;20402;-68
2024/02/25 11:41:11;;;;;;;2.77;2.67;;;13.50;91.50;;;;;;4916266;29;20414;-67
2024/02/25 11:43:38;;;;;;;2.80;2.70;;;13.40;92.40;;;;;;4935102;29;20834;-66
2024/02/25 11:46:09;;;;;;;3.27;3.07;;;13.20;91.80;;;;;;4935104;29;20412;-66
2024/02/25 11:48:35;;;;;;;2.80;2.73;;;13.10;92.30;;;;;;4934562;29;20417;-66
2024/02/25 11:51:04;;;;;;;2.80;2.70;;;13.00;93.50;;;;;;4935038;29;20416;-67
2024/02/25 11:53:30;;;;;;;2.07;1.97;;;12.90;93.10;;;;;;4934665;29;20416;-66
2024/02/25 11:55:56;;;;;;;2.13;2.03;;;13.00;93.20;;;;;;4918056;29;20923;-66
2024/02/25 11:58:22;;;;;;;3.53;3.40;;;12.70;92.50;;;;;;4934718;29;20413;-66
2024/02/25 12:00:49;;;;;;;3.07;3.00;;;12.50;94.00;;;;;;4934766;29;20217;-65
2024/02/25 12:03:16;;;;;;;3.23;3.10;;;12.30;93.50;;;;;;4934923;29;20925;-65
2024/02/25 12:05:43;;;;;;;2.40;2.30;;;12.20;94.50;;;;;;4934565;29;20409;-65
2024/02/25 12:08:12;;;;;;;2.83;2.73;;;12.40;95.50;;;;;;4934910;29;20508;-66
2024/02/25 12:10:38;;;;;;;2.77;2.57;;;12.50;94.50;;;;;;4934575;29;20422;-66
2024/02/25 12:13:04;;;;;;;2.33;2.23;;;12.70;95.10;;;;;;4936662;29;20420;-65
2024/02/25 12:15:31;;;;;;;2.47;2.13;;;12.80;93.50;;;;;;4937801;29;20413;-67
2024/02/25 12:17:57;;;;;;;2.50;2.40;;;13.00;93.20;;;;;;4921247;29;20179;-66
2024/02/25 12:20:24;;;;;;;2.53;2.37;;;13.10;93.60;;;;;;4937996;29;20950;-66
2024/02/25 12:22:53;;;;;;;2.57;2.47;;;13.30;93.20;;;;;;4920929;29;20272;-66
2024/02/25 12:25:19;;;;;;;3.10;2.90;;;13.50;93.10;;;;;;4938299;29;20424;-66
2024/02/25 12:27:45;;;;;;;2.43;2.30;;;13.70;93.10;;;;;;4937219;29;20464;-66
2024/02/25 12:30:18;;;;;;;2.13;2.03;;;13.70;91.60;;;;;;4938101;29;20529;-66
2024/02/25 12:32:44;;;;;;;2.30;2.20;;;13.60;91.00;;;;;;4920584;29;20417;-66
2024/02/25 12:35:10;;;;;;;3.50;3.30;;;13.70;92.60;;;;;;4938127;29;20440;-67
2024/02/25 12:37:35;;;;;;;2.57;2.37;;;13.80;92.10;;;;;;4937124;29;20188;-66
2024/02/25 12:40:05;;;;;;;2.07;2.00;;;13.80;91.40;;;;;;4952752;29;20657;-66
2024/02/25 12:42:32;;;;;;;2.13;1.93;;;13.50;91.10;;;;;;4937050;29;20644;-66
2024/02/25 12:44:57;;;;;;;1.60;1.60;;;13.50;92.00;;;;;;4937662;29;20936;-66
2024/02/25 12:47:23;;;;;;;2.53;2.43;;;13.60;90.70;;;;;;4937818;29;20493;-66
2024/02/25 12:49:49;;;;;;;2.37;2.00;;;13.30;91.60;;;;;;4937124;29;20181;-67
2024/02/25 12:52:16;;;;;;;1.67;1.67;;;13.10;91.60;;;;;;4937855;29;20420;-66